sensor_id;sensor_type;location;lat;lon;timestamp;P1;durP1;ratioP1;P2;durP2;ratioP2
36789;SDS011;22740;52.182;8.780;2022-07-06T00:01:44;2.45;;;1.05;;
36789;SDS011;22740;52.182;8.780;2022-07-06T00:07:46;4.65;;;1.00;;
36789;SDS011;22740;52.182;8.780;2022-07-06T00:13:48;3.55;;;0.80;;
36789;SDS011;22740;52.182;8.780;2022-07-06T00:19:50;2.85;;;0.80;;
36789;SDS011;22740;52.182;8.780;2022-07-06T00:25:52;3.78;;;1.10;;
36789;SDS011;22740;52.182;8.780;2022-07-06T00:31:54;2.15;;;0.68;;
36789;SDS011;22740;52.182;8.780;2022-07-06T00:37:55;6.68;;;1.25;;
36789;SDS011;22740;52.182;8.780;2022-07-06T00:43:57;2.25;;;1.05;;
36789;SDS011;22740;52.182;8.780;2022-07-06T00:49:59;4.22;;;1.48;;
36789;SDS011;22740;52.182;8.780;2022-07-06T00:56:16;5.10;;;1.10;;
36789;SDS011;22740;52.182;8.780;2022-07-06T01:02:18;4.43;;;1.30;;
36789;SDS011;22740;52.182;8.780;2022-07-06T01:08:21;3.03;;;0.97;;
36789;SDS011;22740;52.182;8.780;2022-07-06T01:14:25;3.50;;;1.10;;
36789;SDS011;22740;52.182;8.780;2022-07-06T01:20:27;1.58;;;0.80;;
36789;SDS011;22740;52.182;8.780;2022-07-06T01:26:30;3.10;;;1.23;;
36789;SDS011;22740;52.182;8.780;2022-07-06T01:32:33;3.70;;;1.45;;
36789;SDS011;22740;52.182;8.780;2022-07-06T01:38:51;6.07;;;1.10;;
36789;SDS011;22740;52.182;8.780;2022-07-06T01:44:55;2.53;;;0.95;;
36789;SDS011;22740;52.182;8.780;2022-07-06T01:50:58;6.13;;;1.17;;
36789;SDS011;22740;52.182;8.780;2022-07-06T01:57:00;3.80;;;1.25;;
36789;SDS011;22740;52.182;8.780;2022-07-06T02:03:02;3.60;;;1.20;;
36789;SDS011;22740;52.182;8.780;2022-07-06T02:09:04;7.97;;;1.92;;
36789;SDS011;22740;52.182;8.780;2022-07-06T02:15:06;5.68;;;1.52;;
36789;SDS011;22740;52.182;8.780;2022-07-06T02:21:08;2.35;;;1.02;;
36789;SDS011;22740;52.182;8.780;2022-07-06T02:27:10;7.50;;;1.23;;
36789;SDS011;22740;52.182;8.780;2022-07-06T02:33:12;4.55;;;1.17;;
36789;SDS011;22740;52.182;8.780;2022-07-06T02:39:14;3.80;;;1.10;;
36789;SDS011;22740;52.182;8.780;2022-07-06T02:45:15;5.55;;;1.23;;
36789;SDS011;22740;52.182;8.780;2022-07-06T02:51:17;6.60;;;1.35;;
36789;SDS011;22740;52.182;8.780;2022-07-06T02:57:19;5.20;;;1.40;;
36789;SDS011;22740;52.182;8.780;2022-07-06T03:03:21;4.20;;;1.50;;
36789;SDS011;22740;52.182;8.780;2022-07-06T03:09:23;2.83;;;1.20;;
36789;SDS011;22740;52.182;8.780;2022-07-06T03:15:25;3.40;;;1.20;;
36789;SDS011;22740;52.182;8.780;2022-07-06T03:21:26;3.65;;;1.30;;
36789;SDS011;22740;52.182;8.780;2022-07-06T03:27:28;4.63;;;1.83;;
36789;SDS011;22740;52.182;8.780;2022-07-06T03:33:30;4.60;;;1.50;;
36789;SDS011;22740;52.182;8.780;2022-07-06T03:39:32;6.63;;;1.52;;
36789;SDS011;22740;52.182;8.780;2022-07-06T03:45:33;4.13;;;1.40;;
36789;SDS011;22740;52.182;8.780;2022-07-06T03:51:35;5.70;;;1.98;;
36789;SDS011;22740;52.182;8.780;2022-07-06T03:57:37;7.70;;;1.52;;
36789;SDS011;22740;52.182;8.780;2022-07-06T04:03:41;4.15;;;1.50;;
36789;SDS011;22740;52.182;8.780;2022-07-06T04:09:43;3.08;;;1.40;;
36789;SDS011;22740;52.182;8.780;2022-07-06T04:15:45;6.38;;;1.63;;
36789;SDS011;22740;52.182;8.780;2022-07-06T04:21:46;6.20;;;1.80;;
36789;SDS011;22740;52.182;8.780;2022-07-06T04:27:48;8.50;;;1.70;;
36789;SDS011;22740;52.182;8.780;2022-07-06T04:33:50;5.32;;;1.65;;
36789;SDS011;22740;52.182;8.780;2022-07-06T04:39:52;4.50;;;1.90;;
36789;SDS011;22740;52.182;8.780;2022-07-06T04:45:54;8.10;;;1.63;;
36789;SDS011;22740;52.182;8.780;2022-07-06T04:51:55;4.40;;;1.73;;
36789;SDS011;22740;52.182;8.780;2022-07-06T04:57:57;7.03;;;1.42;;
36789;SDS011;22740;52.182;8.780;2022-07-06T05:03:59;6.93;;;1.70;;
36789;SDS011;22740;52.182;8.780;2022-07-06T05:10:01;5.82;;;2.00;;
36789;SDS011;22740;52.182;8.780;2022-07-06T05:16:03;8.88;;;1.45;;
36789;SDS011;22740;52.182;8.780;2022-07-06T05:22:05;4.60;;;1.40;;
36789;SDS011;22740;52.182;8.780;2022-07-06T05:28:08;3.10;;;1.50;;
36789;SDS011;22740;52.182;8.780;2022-07-06T05:34:09;4.45;;;1.50;;
36789;SDS011;22740;52.182;8.780;2022-07-06T05:40:11;5.28;;;1.80;;
36789;SDS011;22740;52.182;8.780;2022-07-06T05:46:13;9.02;;;1.63;;
36789;SDS011;22740;52.182;8.780;2022-07-06T05:52:15;6.90;;;1.40;;
36789;SDS011;22740;52.182;8.780;2022-07-06T05:58:16;9.70;;;2.15;;
36789;SDS011;22740;52.182;8.780;2022-07-06T06:04:18;6.15;;;1.40;;
36789;SDS011;22740;52.182;8.780;2022-07-06T06:10:20;7.57;;;1.42;;
36789;SDS011;22740;52.182;8.780;2022-07-06T06:16:25;3.45;;;1.38;;
36789;SDS011;22740;52.182;8.780;2022-07-06T06:22:27;6.40;;;1.50;;
36789;SDS011;22740;52.182;8.780;2022-07-06T06:28:29;4.05;;;1.30;;
36789;SDS011;22740;52.182;8.780;2022-07-06T06:34:31;4.57;;;1.20;;
36789;SDS011;22740;52.182;8.780;2022-07-06T06:40:34;2.85;;;0.90;;
36789;SDS011;22740;52.182;8.780;2022-07-06T06:46:36;6.28;;;1.27;;
36789;SDS011;22740;52.182;8.780;2022-07-06T06:52:39;3.42;;;1.00;;
36789;SDS011;22740;52.182;8.780;2022-07-06T06:58:41;3.63;;;0.95;;
36789;SDS011;22740;52.182;8.780;2022-07-06T07:05:03;5.03;;;1.00;;
36789;SDS011;22740;52.182;8.780;2022-07-06T07:11:06;4.95;;;1.08;;
36789;SDS011;22740;52.182;8.780;2022-07-06T07:17:08;7.90;;;1.05;;
36789;SDS011;22740;52.182;8.780;2022-07-06T07:23:10;3.50;;;1.02;;
36789;SDS011;22740;52.182;8.780;2022-07-06T07:29:12;3.30;;;1.00;;
36789;SDS011;22740;52.182;8.780;2022-07-06T07:35:14;7.43;;;1.38;;
36789;SDS011;22740;52.182;8.780;2022-07-06T07:41:15;6.57;;;1.40;;
36789;SDS011;22740;52.182;8.780;2022-07-06T07:47:18;6.43;;;1.23;;
36789;SDS011;22740;52.182;8.780;2022-07-06T07:53:19;3.53;;;1.17;;
36789;SDS011;22740;52.182;8.780;2022-07-06T07:59:21;4.82;;;1.00;;
36789;SDS011;22740;52.182;8.780;2022-07-06T08:05:23;4.75;;;0.85;;
36789;SDS011;22740;52.182;8.780;2022-07-06T08:11:25;3.85;;;0.70;;
36789;SDS011;22740;52.182;8.780;2022-07-06T08:17:27;3.85;;;0.77;;
36789;SDS011;22740;52.182;8.780;2022-07-06T08:23:29;3.72;;;0.85;;
36789;SDS011;22740;52.182;8.780;2022-07-06T08:29:30;1.58;;;0.50;;
36789;SDS011;22740;52.182;8.780;2022-07-06T08:35:32;3.92;;;0.70;;
36789;SDS011;22740;52.182;8.780;2022-07-06T08:41:34;1.27;;;0.50;;
36789;SDS011;22740;52.182;8.780;2022-07-06T08:47:39;7.60;;;0.63;;
36789;SDS011;22740;52.182;8.780;2022-07-06T08:53:43;3.90;;;0.80;;
36789;SDS011;22740;52.182;8.780;2022-07-06T08:59:46;3.75;;;0.82;;
36789;SDS011;22740;52.182;8.780;2022-07-06T09:05:48;1.90;;;0.50;;
36789;SDS011;22740;52.182;8.780;2022-07-06T09:11:56;2.28;;;0.60;;
36789;SDS011;22740;52.182;8.780;2022-07-06T09:18:04;3.22;;;0.52;;
36789;SDS011;22740;52.182;8.780;2022-07-06T09:24:07;3.03;;;0.68;;
36789;SDS011;22740;52.182;8.780;2022-07-06T09:30:11;6.57;;;0.80;;
36789;SDS011;22740;52.182;8.780;2022-07-06T09:36:13;5.10;;;0.73;;
36789;SDS011;22740;52.182;8.780;2022-07-06T09:42:15;2.88;;;0.80;;
36789;SDS011;22740;52.182;8.780;2022-07-06T09:48:18;5.53;;;0.77;;
36789;SDS011;22740;52.182;8.780;2022-07-06T09:54:23;4.43;;;0.82;;
36789;SDS011;22740;52.182;8.780;2022-07-06T10:00:25;5.43;;;0.73;;
36789;SDS011;22740;52.182;8.780;2022-07-06T10:06:27;2.17;;;0.60;;
36789;SDS011;22740;52.182;8.780;2022-07-06T10:12:29;4.88;;;0.75;;
36789;SDS011;22740;52.182;8.780;2022-07-06T10:18:31;4.25;;;1.00;;
36789;SDS011;22740;52.182;8.780;2022-07-06T10:24:33;2.42;;;0.55;;
36789;SDS011;22740;52.182;8.780;2022-07-06T10:30:41;4.03;;;1.42;;
36789;SDS011;22740;52.182;8.780;2022-07-06T10:36:48;11.40;;;0.90;;
36789;SDS011;22740;52.182;8.780;2022-07-06T10:43:02;7.40;;;0.95;;
36789;SDS011;22740;52.182;8.780;2022-07-06T10:49:10;3.35;;;0.73;;
36789;SDS011;22740;52.182;8.780;2022-07-06T10:55:37;4.88;;;0.80;;
36789;SDS011;22740;52.182;8.780;2022-07-06T11:01:42;6.47;;;0.82;;
36789;SDS011;22740;52.182;8.780;2022-07-06T11:08:19;2.42;;;0.93;;
36789;SDS011;22740;52.182;8.780;2022-07-06T11:14:21;3.47;;;0.63;;
36789;SDS011;22740;52.182;8.780;2022-07-06T11:20:24;5.90;;;0.90;;
36789;SDS011;22740;52.182;8.780;2022-07-06T11:26:26;6.45;;;0.70;;
36789;SDS011;22740;52.182;8.780;2022-07-06T11:32:28;1.60;;;0.65;;
36789;SDS011;22740;52.182;8.780;2022-07-06T11:38:30;5.78;;;0.80;;
36789;SDS011;22740;52.182;8.780;2022-07-06T11:44:32;2.63;;;0.57;;
36789;SDS011;22740;52.182;8.780;2022-07-06T11:50:35;2.73;;;0.60;;
36789;SDS011;22740;52.182;8.780;2022-07-06T11:56:37;2.63;;;0.65;;
36789;SDS011;22740;52.182;8.780;2022-07-06T12:02:59;2.40;;;0.60;;
36789;SDS011;22740;52.182;8.780;2022-07-06T12:09:01;3.38;;;0.57;;
36789;SDS011;22740;52.182;8.780;2022-07-06T12:21:12;3.78;;;0.70;;
36789;SDS011;22740;52.182;8.780;2022-07-06T12:27:19;2.90;;;1.25;;
36789;SDS011;22740;52.182;8.780;2022-07-06T12:33:21;4.53;;;0.65;;
36789;SDS011;22740;52.182;8.780;2022-07-06T12:39:26;2.67;;;0.60;;
36789;SDS011;22740;52.182;8.780;2022-07-06T12:45:29;3.30;;;0.70;;
36789;SDS011;22740;52.182;8.780;2022-07-06T12:51:47;4.13;;;1.50;;
36789;SDS011;22740;52.182;8.780;2022-07-06T12:58:00;2.70;;;0.57;;
36789;SDS011;22740;52.182;8.780;2022-07-06T13:04:06;3.15;;;0.60;;
36789;SDS011;22740;52.182;8.780;2022-07-06T13:10:09;3.88;;;0.55;;
36789;SDS011;22740;52.182;8.780;2022-07-06T13:16:12;3.53;;;0.75;;
36789;SDS011;22740;52.182;8.780;2022-07-06T13:22:14;2.95;;;0.60;;
36789;SDS011;22740;52.182;8.780;2022-07-06T13:28:16;6.35;;;0.50;;
36789;SDS011;22740;52.182;8.780;2022-07-06T13:34:18;1.67;;;0.47;;
36789;SDS011;22740;52.182;8.780;2022-07-06T13:40:19;2.38;;;0.38;;
36789;SDS011;22740;52.182;8.780;2022-07-06T13:46:21;4.95;;;0.50;;
36789;SDS011;22740;52.182;8.780;2022-07-06T13:52:23;2.33;;;0.60;;
36789;SDS011;22740;52.182;8.780;2022-07-06T13:58:25;1.20;;;0.40;;
36789;SDS011;22740;52.182;8.780;2022-07-06T14:04:27;2.92;;;0.40;;
36789;SDS011;22740;52.182;8.780;2022-07-06T14:10:28;1.70;;;0.50;;
36789;SDS011;22740;52.182;8.780;2022-07-06T14:16:30;1.70;;;0.50;;
36789;SDS011;22740;52.182;8.780;2022-07-06T14:22:32;3.50;;;0.50;;
36789;SDS011;22740;52.182;8.780;2022-07-06T14:28:34;3.20;;;0.50;;
36789;SDS011;22740;52.182;8.780;2022-07-06T14:34:36;3.30;;;0.50;;
36789;SDS011;22740;52.182;8.780;2022-07-06T14:40:38;4.35;;;0.70;;
36789;SDS011;22740;52.182;8.780;2022-07-06T14:46:40;1.20;;;0.40;;
36789;SDS011;22740;52.182;8.780;2022-07-06T14:52:42;2.53;;;0.28;;
36789;SDS011;22740;52.182;8.780;2022-07-06T14:58:44;1.67;;;0.35;;
36789;SDS011;22740;52.182;8.780;2022-07-06T15:05:06;1.33;;;0.40;;
36789;SDS011;22740;52.182;8.780;2022-07-06T15:11:08;2.00;;;0.35;;
36789;SDS011;22740;52.182;8.780;2022-07-06T15:17:09;3.25;;;0.60;;
36789;SDS011;22740;52.182;8.780;2022-07-06T15:23:11;3.63;;;0.60;;
36789;SDS011;22740;52.182;8.780;2022-07-06T15:29:13;3.65;;;0.40;;
36789;SDS011;22740;52.182;8.780;2022-07-06T15:35:15;0.98;;;0.38;;
36789;SDS011;22740;52.182;8.780;2022-07-06T15:41:17;3.97;;;0.85;;
36789;SDS011;22740;52.182;8.780;2022-07-06T15:47:19;4.43;;;0.70;;
36789;SDS011;22740;52.182;8.780;2022-07-06T15:53:24;11.00;;;0.70;;
36789;SDS011;22740;52.182;8.780;2022-07-06T15:59:26;2.63;;;0.40;;
36789;SDS011;22740;52.182;8.780;2022-07-06T16:05:28;2.78;;;0.57;;
36789;SDS011;22740;52.182;8.780;2022-07-06T16:11:50;1.98;;;0.40;;
36789;SDS011;22740;52.182;8.780;2022-07-06T16:17:52;6.80;;;0.45;;
36789;SDS011;22740;52.182;8.780;2022-07-06T16:23:54;3.88;;;0.70;;
36789;SDS011;22740;52.182;8.780;2022-07-06T16:29:56;6.15;;;0.85;;
36789;SDS011;22740;52.182;8.780;2022-07-06T16:35:58;1.38;;;0.40;;
36789;SDS011;22740;52.182;8.780;2022-07-06T16:42:00;3.17;;;0.50;;
36789;SDS011;22740;52.182;8.780;2022-07-06T16:48:03;5.03;;;0.60;;
36789;SDS011;22740;52.182;8.780;2022-07-06T16:54:07;3.60;;;0.50;;
36789;SDS011;22740;52.182;8.780;2022-07-06T17:00:09;3.60;;;0.50;;
36789;SDS011;22740;52.182;8.780;2022-07-06T17:06:12;1.13;;;0.32;;
36789;SDS011;22740;52.182;8.780;2022-07-06T17:12:14;1.55;;;0.45;;
36789;SDS011;22740;52.182;8.780;2022-07-06T17:18:15;2.33;;;0.50;;
36789;SDS011;22740;52.182;8.780;2022-07-06T17:24:17;4.85;;;0.65;;
36789;SDS011;22740;52.182;8.780;2022-07-06T17:30:19;3.72;;;0.57;;
36789;SDS011;22740;52.182;8.780;2022-07-06T17:36:21;4.03;;;0.43;;
36789;SDS011;22740;52.182;8.780;2022-07-06T17:42:23;4.70;;;1.00;;
36789;SDS011;22740;52.182;8.780;2022-07-06T17:48:26;6.10;;;0.70;;
36789;SDS011;22740;52.182;8.780;2022-07-06T17:54:28;3.58;;;0.70;;
36789;SDS011;22740;52.182;8.780;2022-07-06T18:00:30;1.40;;;0.40;;
36789;SDS011;22740;52.182;8.780;2022-07-06T18:06:32;1.67;;;0.52;;
36789;SDS011;22740;52.182;8.780;2022-07-06T18:12:34;5.43;;;0.50;;
36789;SDS011;22740;52.182;8.780;2022-07-06T18:18:36;3.13;;;0.50;;
36789;SDS011;22740;52.182;8.780;2022-07-06T18:24:38;3.25;;;0.47;;
36789;SDS011;22740;52.182;8.780;2022-07-06T18:30:40;2.75;;;0.52;;
36789;SDS011;22740;52.182;8.780;2022-07-06T18:36:41;1.73;;;0.63;;
36789;SDS011;22740;52.182;8.780;2022-07-06T18:42:43;5.38;;;0.50;;
36789;SDS011;22740;52.182;8.780;2022-07-06T18:48:45;8.90;;;0.70;;
36789;SDS011;22740;52.182;8.780;2022-07-06T18:54:47;3.67;;;0.60;;
36789;SDS011;22740;52.182;8.780;2022-07-06T19:00:49;4.07;;;0.65;;
36789;SDS011;22740;52.182;8.780;2022-07-06T19:06:51;3.97;;;0.60;;
36789;SDS011;22740;52.182;8.780;2022-07-06T19:12:52;4.20;;;0.88;;
36789;SDS011;22740;52.182;8.780;2022-07-06T19:18:55;5.32;;;0.70;;
36789;SDS011;22740;52.182;8.780;2022-07-06T19:24:56;7.85;;;1.15;;
36789;SDS011;22740;52.182;8.780;2022-07-06T19:30:58;2.78;;;0.43;;
36789;SDS011;22740;52.182;8.780;2022-07-06T19:37:00;3.00;;;0.60;;
36789;SDS011;22740;52.182;8.780;2022-07-06T19:43:02;7.68;;;0.70;;
36789;SDS011;22740;52.182;8.780;2022-07-06T19:49:04;3.70;;;0.70;;
36789;SDS011;22740;52.182;8.780;2022-07-06T19:55:06;3.08;;;0.70;;
36789;SDS011;22740;52.182;8.780;2022-07-06T20:01:08;4.75;;;0.50;;
36789;SDS011;22740;52.182;8.780;2022-07-06T20:07:09;3.90;;;0.47;;
36789;SDS011;22740;52.182;8.780;2022-07-06T20:13:11;7.47;;;0.80;;
36789;SDS011;22740;52.182;8.780;2022-07-06T20:19:14;5.88;;;0.90;;
36789;SDS011;22740;52.182;8.780;2022-07-06T20:25:19;7.22;;;1.02;;
36789;SDS011;22740;52.182;8.780;2022-07-06T20:31:21;2.35;;;0.50;;
36789;SDS011;22740;52.182;8.780;2022-07-06T20:37:23;3.78;;;0.80;;
36789;SDS011;22740;52.182;8.780;2022-07-06T20:43:25;4.18;;;0.60;;
36789;SDS011;22740;52.182;8.780;2022-07-06T20:49:27;2.08;;;0.63;;
36789;SDS011;22740;52.182;8.780;2022-07-06T20:55:29;2.45;;;0.68;;
36789;SDS011;22740;52.182;8.780;2022-07-06T21:01:30;3.53;;;0.85;;
36789;SDS011;22740;52.182;8.780;2022-07-06T21:07:34;5.80;;;0.83;;
36789;SDS011;22740;52.182;8.780;2022-07-06T21:13:36;4.65;;;0.98;;
36789;SDS011;22740;52.182;8.780;2022-07-06T21:19:37;3.10;;;0.68;;
36789;SDS011;22740;52.182;8.780;2022-07-06T21:25:39;3.38;;;1.00;;
36789;SDS011;22740;52.182;8.780;2022-07-06T21:31:41;4.32;;;0.88;;
36789;SDS011;22740;52.182;8.780;2022-07-06T21:37:43;3.45;;;0.70;;
36789;SDS011;22740;52.182;8.780;2022-07-06T21:43:45;2.42;;;1.00;;
36789;SDS011;22740;52.182;8.780;2022-07-06T21:49:47;2.60;;;0.70;;
36789;SDS011;22740;52.182;8.780;2022-07-06T21:55:48;4.38;;;0.90;;
36789;SDS011;22740;52.182;8.780;2022-07-06T22:01:52;2.50;;;0.90;;
36789;SDS011;22740;52.182;8.780;2022-07-06T22:07:54;3.45;;;1.00;;
36789;SDS011;22740;52.182;8.780;2022-07-06T22:13:56;2.22;;;0.98;;
36789;SDS011;22740;52.182;8.780;2022-07-06T22:19:57;2.83;;;1.30;;
36789;SDS011;22740;52.182;8.780;2022-07-06T22:26:00;5.70;;;1.27;;
36789;SDS011;22740;52.182;8.780;2022-07-06T22:32:02;4.93;;;1.75;;
36789;SDS011;22740;52.182;8.780;2022-07-06T22:38:04;5.10;;;1.40;;
36789;SDS011;22740;52.182;8.780;2022-07-06T22:44:06;2.25;;;1.33;;
36789;SDS011;22740;52.182;8.780;2022-07-06T22:50:09;3.47;;;1.10;;
36789;SDS011;22740;52.182;8.780;2022-07-06T22:56:11;3.83;;;1.00;;
36789;SDS011;22740;52.182;8.780;2022-07-06T23:02:12;5.38;;;1.23;;
36789;SDS011;22740;52.182;8.780;2022-07-06T23:08:15;5.85;;;1.90;;
36789;SDS011;22740;52.182;8.780;2022-07-06T23:14:17;7.15;;;1.48;;
36789;SDS011;22740;52.182;8.780;2022-07-06T23:20:19;4.68;;;1.92;;
36789;SDS011;22740;52.182;8.780;2022-07-06T23:26:21;4.65;;;1.92;;
36789;SDS011;22740;52.182;8.780;2022-07-06T23:32:23;7.57;;;2.10;;
36789;SDS011;22740;52.182;8.780;2022-07-06T23:38:25;6.03;;;2.50;;
36789;SDS011;22740;52.182;8.780;2022-07-06T23:44:27;4.30;;;2.03;;
36789;SDS011;22740;52.182;8.780;2022-07-06T23:50:28;10.70;;;2.00;;
36789;SDS011;22740;52.182;8.780;2022-07-06T23:56:30;5.70;;;2.70;;
